createdAt,value
2022-12-29T00:01:10.241Z,93058.53
2022-12-29T00:03:39.813Z,93064.25
2022-12-29T00:06:08.009Z,93094.69
2022-12-29T00:08:44.665Z,93132.97
2022-12-29T00:11:14.138Z,93130.03
2022-12-29T00:13:59.868Z,93154.53
2022-12-29T00:16:28.904Z,93149.63
2022-12-29T00:18:58.522Z,93162.84
2022-12-29T00:21:44.776Z,93197.31
2022-12-29T00:24:33.619Z,93196.00
2022-12-29T00:27:30.853Z,93199.22
2022-12-29T00:30:17.187Z,93197.38
2022-12-29T00:33:03.635Z,93180.28
2022-12-29T00:35:38.968Z,93149.09
2022-12-29T00:38:27.369Z,93111.28
2022-12-29T00:41:12.759Z,93092.97
2022-12-29T00:43:58.148Z,93079.19
2022-12-29T00:46:26.175Z,93072.44
2022-12-29T00:49:11.452Z,93102.66
2022-12-29T00:51:41.299Z,93121.81
2022-12-29T00:54:09.597Z,93154.09
2022-12-29T00:56:37.876Z,93171.69
2022-12-29T00:59:07.042Z,93197.25
2022-12-29T01:01:35.919Z,93197.53
2022-12-29T01:04:04.965Z,93219.59
2022-12-29T01:06:33.447Z,93258.91
2022-12-29T01:09:25.613Z,93257.28
2022-12-29T01:11:54.161Z,93224.19
2022-12-29T01:14:22.494Z,93154.88
2022-12-29T01:16:50.750Z,93079.50
2022-12-29T01:19:20.080Z,92992.44
2022-12-29T01:21:48.505Z,92883.63
2022-12-29T01:24:19.095Z,92864.94
2022-12-29T01:26:49.454Z,93005.03
2022-12-29T01:29:18.715Z,92975.53
2022-12-29T01:31:50.642Z,92935.69
2022-12-29T01:34:19.129Z,92932.56
2022-12-29T01:36:47.465Z,92922.06
2022-12-29T01:39:15.476Z,92952.03
2022-12-29T01:41:45.721Z,92939.63
2022-12-29T01:44:52.373Z,92955.00
2022-12-29T01:47:27.517Z,92950.31
2022-12-29T01:49:58.167Z,92935.53
2022-12-29T01:52:30.692Z,92953.97
2022-12-29T01:55:00.134Z,92931.94
2022-12-29T01:57:35.569Z,92926.53
2022-12-29T02:00:09.345Z,92930.44
2022-12-29T02:02:46.105Z,92918.28
2022-12-29T02:05:22.137Z,92932.28
2022-12-29T02:07:52.905Z,92939.28
2022-12-29T02:10:23.253Z,92920.13
2022-12-29T02:12:53.242Z,92908.69
2022-12-29T02:15:26.940Z,92897.75
2022-12-29T02:18:12.506Z,92907.31
2022-12-29T02:21:13.907Z,92887.44
2022-12-29T02:24:12.873Z,92882.03
2022-12-29T02:27:14.795Z,92867.44
2022-12-29T02:30:09.598Z,92855.66
2022-12-29T02:32:52.058Z,92855.09
2022-12-29T02:35:28.332Z,92889.22
2022-12-29T02:38:06.011Z,92869.63
2022-12-29T02:40:41.865Z,92871.38
2022-12-29T02:43:19.970Z,92871.63
2022-12-29T02:45:53.828Z,92863.84
2022-12-29T02:48:31.269Z,92866.22
2022-12-29T02:51:03.830Z,92868.41
2022-12-29T02:53:52.507Z,92873.00
2022-12-29T02:56:20.817Z,92866.94
2022-12-29T02:58:48.771Z,92867.44
2022-12-29T03:01:30.374Z,92877.66
2022-12-29T03:04:14.638Z,92876.56
2022-12-29T03:06:54.167Z,92889.38
2022-12-29T03:09:32.793Z,92882.31
2022-12-29T03:12:10.039Z,92890.03
2022-12-29T03:15:09.138Z,92913.34
2022-12-29T03:17:53.860Z,92901.97
2022-12-29T03:20:27.724Z,92935.78
2022-12-29T03:23:02.492Z,92906.19
2022-12-29T03:25:36.091Z,92908.47
2022-12-29T03:28:11.428Z,92923.91
2022-12-29T03:30:45.755Z,92897.53
2022-12-29T03:33:19.690Z,92903.38
2022-12-29T03:35:53.255Z,92918.44
2022-12-29T03:38:26.033Z,92911.47
2022-12-29T03:40:58.814Z,92911.03
2022-12-29T03:43:29.881Z,92913.06
2022-12-29T03:45:58.672Z,92914.16
2022-12-29T03:48:26.940Z,92909.78
2022-12-29T03:50:58.322Z,92925.56
2022-12-29T03:53:26.806Z,92928.28
2022-12-29T03:55:55.048Z,92931.94
2022-12-29T03:58:24.004Z,92929.38
2022-12-29T04:01:07.128Z,92918.16
2022-12-29T04:03:38.521Z,92913.78
2022-12-29T04:06:09.242Z,92900.25
2022-12-29T04:08:42.836Z,92924.91
2022-12-29T04:11:10.890Z,92906.19
2022-12-29T04:13:41.935Z,92892.97
2022-12-29T04:16:12.157Z,92902.56
2022-12-29T04:18:40.138Z,92909.50
2022-12-29T04:21:09.914Z,92896.44
2022-12-29T04:23:41.754Z,92886.53
2022-12-29T04:26:11.601Z,92897.47
2022-12-29T04:28:50.808Z,92887.63
2022-12-29T04:31:37.330Z,92894.69
2022-12-29T04:34:06.281Z,92887.25
2022-12-29T04:36:35.967Z,92896.72
2022-12-29T04:39:06.186Z,92899.94
2022-12-29T04:41:35.240Z,92905.41
2022-12-29T04:44:04.360Z,92893.38
2022-12-29T04:46:47.957Z,92895.78
2022-12-29T04:49:30.651Z,92916.63
2022-12-29T04:52:23.092Z,92914.72
2022-12-29T04:54:51.401Z,92940.09
2022-12-29T04:57:21.821Z,92943.97
2022-12-29T04:59:54.299Z,92955.78
2022-12-29T05:02:24.247Z,92972.66
2022-12-29T05:04:52.967Z,92971.13
2022-12-29T05:07:22.653Z,93001.25
2022-12-29T05:09:50.952Z,92984.31
2022-12-29T05:12:19.080Z,93017.72
2022-12-29T05:15:00.480Z,93059.69
2022-12-29T05:17:28.563Z,93083.44
2022-12-29T05:19:58.659Z,93087.41
2022-12-29T05:22:28.605Z,93126.03
2022-12-29T05:24:57.876Z,93133.19
2022-12-29T05:27:26.357Z,93163.38
2022-12-29T05:30:22.117Z,93187.44
2022-12-29T05:32:50.426Z,93249.25
2022-12-29T05:35:20.120Z,93307.56
2022-12-29T05:37:49.405Z,93354.50
2022-12-29T05:40:17.809Z,93404.41
2022-12-29T05:42:46.951Z,93474.91
2022-12-29T05:45:40.263Z,93477.50
2022-12-29T05:48:38.328Z,93504.03
2022-12-29T05:51:32.942Z,93520.25
2022-12-29T05:54:03.230Z,93504.56
2022-12-29T05:56:31.305Z,93537.59
2022-12-29T05:59:00.632Z,93513.59
2022-12-29T06:01:29.976Z,93490.69
2022-12-29T06:03:59.788Z,93477.78
2022-12-29T06:06:27.901Z,93454.91
2022-12-29T06:08:56.320Z,93446.56
2022-12-29T06:11:28.098Z,93403.97
2022-12-29T06:13:59.748Z,93384.13
2022-12-29T06:16:27.893Z,93349.09
2022-12-29T06:18:59.427Z,93323.53
2022-12-29T06:21:27.513Z,93300.09
2022-12-29T06:23:55.495Z,93256.06
2022-12-29T06:26:23.487Z,93281.31
2022-12-29T06:28:52.858Z,93258.63
2022-12-29T06:31:20.949Z,93261.06
2022-12-29T06:33:50.433Z,93188.44
2022-12-29T06:36:18.956Z,93190.63
2022-12-29T06:38:47.186Z,93159.22
2022-12-29T06:41:15.222Z,93126.72
2022-12-29T06:44:03.270Z,93113.16
2022-12-29T06:46:58.536Z,93160.53
2022-12-29T06:49:26.696Z,93176.47
2022-12-29T06:51:54.631Z,93180.69
2022-12-29T06:54:22.570Z,93164.72
2022-12-29T06:56:51.433Z,93182.75
2022-12-29T06:59:21.708Z,93208.72
2022-12-29T07:01:50.241Z,93210.53
2022-12-29T07:04:18.589Z,93226.13
2022-12-29T07:06:47.205Z,93239.38
2022-12-29T07:09:15.359Z,93255.84
2022-12-29T07:11:43.325Z,93297.66
2022-12-29T07:14:13.447Z,93303.56
2022-12-29T07:16:42.941Z,93313.50
2022-12-29T07:19:11.032Z,93362.41
2022-12-29T07:21:39.002Z,93369.91
2022-12-29T07:24:07.681Z,93410.34
2022-12-29T07:26:37.180Z,93410.75
2022-12-29T07:29:05.926Z,93432.56
2022-12-29T07:31:33.985Z,93459.78
2022-12-29T07:34:03.671Z,93507.84
2022-12-29T07:36:34.653Z,93531.09
2022-12-29T07:39:03.035Z,93565.00
2022-12-29T07:41:31.146Z,93614.66
2022-12-29T07:44:01.048Z,93622.47
2022-12-29T07:46:55.652Z,93668.03
2022-12-29T07:49:27.009Z,93694.44
2022-12-29T07:51:55.002Z,93747.28
2022-12-29T07:54:24.027Z,93749.72
2022-12-29T07:56:52.499Z,93785.84
2022-12-29T07:59:20.435Z,93793.13
2022-12-29T08:01:48.696Z,93823.31
2022-12-29T08:04:17.062Z,93852.41
2022-12-29T08:06:47.463Z,93893.34
2022-12-29T08:09:21.950Z,93911.13
2022-12-29T08:11:50.949Z,93910.66
2022-12-29T08:14:19.309Z,93920.63
2022-12-29T08:16:47.403Z,93970.44
2022-12-29T08:19:15.916Z,93966.16
2022-12-29T08:21:44.000Z,93989.59
2022-12-29T08:24:13.309Z,94022.41
2022-12-29T08:26:41.381Z,93989.88
2022-12-29T08:29:09.395Z,93999.63
2022-12-29T08:31:37.649Z,94003.94
2022-12-29T08:34:06.503Z,94028.19
2022-12-29T08:36:34.848Z,94041.91
2022-12-29T08:39:02.879Z,94045.16
2022-12-29T08:41:32.329Z,94044.09
2022-12-29T08:44:00.281Z,94043.31
2022-12-29T08:46:28.521Z,94025.59
2022-12-29T08:48:56.648Z,94083.66
2022-12-29T08:51:25.342Z,94066.44
2022-12-29T08:53:53.711Z,94054.59
2022-12-29T08:56:24.723Z,94084.75
2022-12-29T08:58:57.579Z,94116.78
2022-12-29T09:01:26.665Z,94141.22
2022-12-29T09:06:44.721Z,94172.53
2022-12-29T09:09:13.060Z,94143.38
2022-12-29T09:11:41.055Z,94157.09
2022-12-29T09:14:10.421Z,94176.06
2022-12-29T09:16:38.866Z,94150.06
2022-12-29T09:19:07.082Z,94232.22
2022-12-29T09:21:35.099Z,94274.13
2022-12-29T09:24:03.124Z,94252.84
2022-12-29T09:26:31.177Z,94278.41
2022-12-29T09:28:59.061Z,94275.97
2022-12-29T09:31:28.567Z,94267.63
2022-12-29T09:33:56.892Z,94297.84
2022-12-29T09:36:24.958Z,94269.94
2022-12-29T09:38:55.268Z,94306.72
2022-12-29T09:41:28.749Z,94272.28
2022-12-29T09:44:14.887Z,94260.69
2022-12-29T09:46:48.585Z,94292.78
2022-12-29T09:49:25.440Z,94293.00
2022-12-29T09:51:56.175Z,94303.25
2022-12-29T09:54:38.804Z,94307.84
2022-12-29T09:57:12.579Z,94344.34
2022-12-29T09:59:42.717Z,94345.31
2022-12-29T10:02:25.998Z,94330.56
2022-12-29T10:04:54.088Z,94364.03
2022-12-29T10:07:35.170Z,94389.94
2022-12-29T10:10:19.395Z,94462.28
2022-12-29T10:13:01.732Z,94483.66
2022-12-29T10:15:43.042Z,94501.94
2022-12-29T10:18:40.655Z,94544.53
2022-12-29T10:21:18.647Z,94581.22
2022-12-29T10:23:51.048Z,94609.59
2022-12-29T10:26:22.283Z,94646.03
2022-12-29T10:28:54.213Z,94656.34
2022-12-29T10:31:25.325Z,94711.16
2022-12-29T10:34:02.142Z,94750.88
2022-12-29T10:36:35.882Z,94782.31
2022-12-29T10:39:15.467Z,94832.88
2022-12-29T10:41:48.888Z,94901.59
2022-12-29T10:44:20.303Z,94944.06
2022-12-29T10:46:57.529Z,94969.44
2022-12-29T10:49:30.567Z,95035.25
2022-12-29T10:52:02.399Z,95027.63
2022-12-29T10:54:38.688Z,95037.09
2022-12-29T10:57:12.914Z,95059.97
2022-12-29T10:59:41.499Z,95062.31
2022-12-29T11:02:28.667Z,95068.97
2022-12-29T11:05:05.507Z,95087.03
2022-12-29T11:07:33.649Z,95128.91
2022-12-29T11:10:21.141Z,95137.34
2022-12-29T11:12:59.492Z,95174.50
2022-12-29T11:15:27.772Z,95152.91
2022-12-29T11:17:58.941Z,95187.28
2022-12-29T11:20:38.835Z,95179.78
2022-12-29T11:23:23.575Z,95213.06
2022-12-29T11:26:16.211Z,95185.06
2022-12-29T11:28:46.096Z,95207.13
2022-12-29T11:31:18.651Z,95248.00
2022-12-29T11:33:47.926Z,95233.69
2022-12-29T11:36:22.567Z,95228.00
2022-12-29T11:38:53.015Z,95248.03
2022-12-29T11:41:27.073Z,95264.88
2022-12-29T11:43:58.189Z,95269.81
2022-12-29T11:46:30.149Z,95260.66
2022-12-29T11:49:01.495Z,95264.56
2022-12-29T11:51:34.191Z,95318.22
2022-12-29T11:54:06.899Z,95311.09
2022-12-29T11:56:41.339Z,95322.81
2022-12-29T11:59:43.095Z,95363.28
2022-12-29T12:02:24.466Z,95375.81
2022-12-29T12:04:59.183Z,95358.16
2022-12-29T12:07:40.184Z,95396.97
2022-12-29T12:10:13.414Z,95403.16
2022-12-29T12:12:49.258Z,95401.09
2022-12-29T12:15:22.893Z,95449.41
2022-12-29T12:18:04.841Z,95440.91
2022-12-29T12:20:44.957Z,95448.78
2022-12-29T12:23:28.135Z,95465.41
2022-12-29T12:26:04.571Z,95464.47
2022-12-29T12:28:39.922Z,95449.16
2022-12-29T12:31:19.406Z,95466.25
2022-12-29T12:33:52.258Z,95482.66
2022-12-29T12:36:34.464Z,95495.75
2022-12-29T12:39:12.979Z,95456.50
2022-12-29T12:41:52.399Z,95490.38
2022-12-29T12:44:30.038Z,95500.13
2022-12-29T12:47:17.073Z,95497.69
2022-12-29T12:50:07.409Z,95527.59
2022-12-29T12:52:48.139Z,95502.00
2022-12-29T12:55:38.249Z,95513.22
2022-12-29T12:58:17.363Z,95534.22
2022-12-29T13:01:09.033Z,95505.44
2022-12-29T13:03:56.034Z,95479.72
2022-12-29T13:06:35.745Z,95482.16
2022-12-29T13:09:20.500Z,95490.16
2022-12-29T13:12:02.369Z,95491.03
2022-12-29T13:14:44.314Z,95472.56
2022-12-29T13:17:19.955Z,95508.28
2022-12-29T13:19:55.445Z,95521.31
2022-12-29T13:22:29.779Z,95497.22
2022-12-29T13:25:15.918Z,95516.38
2022-12-29T13:27:52.795Z,95488.63
2022-12-29T13:30:24.285Z,95451.44
2022-12-29T13:33:03.994Z,95491.00
2022-12-29T13:35:48.883Z,95480.28
2022-12-29T13:38:23.338Z,95463.50
2022-12-29T13:40:55.507Z,95494.81
2022-12-29T13:43:26.956Z,95476.94
2022-12-29T13:46:04.115Z,95480.88
2022-12-29T13:48:39.855Z,95476.31
2022-12-29T13:51:12.555Z,95421.72
2022-12-29T13:53:54.197Z,95371.22
2022-12-29T13:56:26.584Z,95346.69
2022-12-29T13:59:02.364Z,95376.16
2022-12-29T14:01:36.737Z,95383.56
2022-12-29T14:04:13.127Z,95391.81
2022-12-29T14:06:43.397Z,95359.31
2022-12-29T14:09:42.318Z,95368.16
2022-12-29T14:12:23.871Z,95360.44
2022-12-29T14:14:53.578Z,95385.88
2022-12-29T14:17:23.341Z,95396.28
2022-12-29T14:19:56.160Z,95409.94
2022-12-29T14:22:33.061Z,95356.94
2022-12-29T14:25:01.856Z,95378.66
2022-12-29T14:27:55.380Z,95352.81
2022-12-29T14:31:00.015Z,95382.47
2022-12-29T14:33:32.173Z,95390.47
2022-12-29T14:36:23.842Z,95417.03
2022-12-29T14:38:52.068Z,95431.94
2022-12-29T14:41:31.408Z,95459.78
2022-12-29T14:44:02.956Z,95410.47
2022-12-29T14:46:50.736Z,95474.69
2022-12-29T14:49:24.156Z,95468.41
2022-12-29T14:51:55.445Z,95483.00
2022-12-29T14:54:45.106Z,95469.91
2022-12-29T14:57:21.967Z,95464.94
2022-12-29T14:59:55.712Z,95474.16
2022-12-29T15:02:28.376Z,95476.25
2022-12-29T15:05:02.829Z,95472.75
2022-12-29T15:07:31.500Z,95460.22
2022-12-29T15:10:07.495Z,95461.34
2022-12-29T15:12:40.985Z,95485.09
2022-12-29T15:15:21.590Z,95475.53
2022-12-29T15:17:49.655Z,95465.47
2022-12-29T15:20:27.041Z,95518.38
2022-12-29T15:22:58.387Z,95485.19
2022-12-29T15:25:27.655Z,95475.66
2022-12-29T15:28:02.410Z,95462.78
2022-12-29T15:30:30.971Z,95448.25
2022-12-29T15:32:59.273Z,95443.78
2022-12-29T15:35:32.946Z,95483.50
2022-12-29T15:38:04.264Z,95477.28
2022-12-29T15:40:34.843Z,95505.22
2022-12-29T15:43:17.283Z,95502.31
2022-12-29T15:45:45.788Z,95508.50
2022-12-29T15:48:19.239Z,95495.97
2022-12-29T15:50:49.506Z,95520.09
2022-12-29T15:53:25.735Z,95509.63
2022-12-29T15:55:58.340Z,95547.06
2022-12-29T15:58:31.904Z,95583.66
2022-12-29T16:01:02.191Z,95575.09
2022-12-29T16:03:34.898Z,95621.84
2022-12-29T16:06:12.627Z,95640.50
2022-12-29T16:08:42.293Z,95652.13
2022-12-29T16:11:25.836Z,95667.13
2022-12-29T16:13:55.875Z,95647.88
2022-12-29T16:16:29.325Z,95653.94
2022-12-29T16:18:58.661Z,95632.56
2022-12-29T16:21:31.035Z,95601.50
2022-12-29T16:24:04.259Z,95573.25
2022-12-29T16:26:32.944Z,95582.84
2022-12-29T16:29:03.197Z,95602.22
2022-12-29T16:31:36.791Z,95546.81
2022-12-29T16:34:23.644Z,95548.78
2022-12-29T16:36:58.665Z,95537.63
2022-12-29T16:39:31.188Z,95526.81
2022-12-29T16:41:59.792Z,95521.84
2022-12-29T16:44:29.503Z,95552.59
2022-12-29T16:47:21.805Z,95508.84
2022-12-29T16:49:55.397Z,95512.75
2022-12-29T16:52:33.985Z,95515.25
2022-12-29T16:55:03.135Z,95532.38
2022-12-29T16:57:32.784Z,95589.59
2022-12-29T17:00:03.560Z,95595.13
2022-12-29T17:02:34.749Z,95630.00
2022-12-29T17:05:03.169Z,95658.88
2022-12-29T17:07:32.662Z,95670.75
2022-12-29T17:10:00.645Z,95675.56
2022-12-29T17:12:31.887Z,95599.28
2022-12-29T17:15:01.963Z,95540.66
2022-12-29T17:17:39.812Z,95436.97
2022-12-29T17:20:20.135Z,95345.72
2022-12-29T17:23:05.803Z,95249.38
2022-12-29T17:25:36.379Z,95117.19
2022-12-29T17:28:07.134Z,95017.47
2022-12-29T17:30:36.259Z,94917.56
2022-12-29T17:33:08.925Z,94842.38
2022-12-29T17:35:37.987Z,94730.63
2022-12-29T17:38:18.974Z,94668.31
2022-12-29T17:40:47.538Z,94616.19
2022-12-29T17:43:38.316Z,94593.19
2022-12-29T17:46:08.428Z,94526.47
2022-12-29T17:48:36.731Z,94513.16
2022-12-29T17:51:04.897Z,94426.28
2022-12-29T17:53:34.757Z,94394.69
2022-12-29T17:56:03.688Z,94372.28
2022-12-29T17:58:33.642Z,94329.47
2022-12-29T18:01:03.489Z,94261.47
2022-12-29T18:03:34.953Z,94241.88
2022-12-29T18:06:06.467Z,94231.28
2022-12-29T18:08:36.440Z,94196.03
2022-12-29T18:11:05.385Z,94114.16
2022-12-29T18:13:44.008Z,94174.56
2022-12-29T18:16:14.929Z,94160.69
2022-12-29T18:18:43.889Z,94151.19
2022-12-29T18:21:18.549Z,94194.22
2022-12-29T18:23:50.828Z,94186.75
2022-12-29T18:26:27.379Z,94169.13
2022-12-29T18:28:56.823Z,94154.50
2022-12-29T18:31:26.342Z,94152.53
2022-12-29T18:33:55.365Z,94172.19
2022-12-29T18:36:23.954Z,94159.69
2022-12-29T18:38:54.977Z,94177.91
2022-12-29T18:41:25.602Z,94139.13
2022-12-29T18:43:54.280Z,94158.78
2022-12-29T18:46:23.849Z,94114.50
2022-12-29T18:48:52.433Z,94116.13
2022-12-29T18:51:22.476Z,94148.69
2022-12-29T18:53:50.850Z,94156.75
2022-12-29T18:56:21.030Z,94179.16
2022-12-29T18:58:49.897Z,94186.75
2022-12-29T19:01:21.691Z,94209.16
2022-12-29T19:03:50.183Z,94235.03
2022-12-29T19:06:18.435Z,94243.72
2022-12-29T19:08:46.417Z,94247.94
2022-12-29T19:11:14.414Z,94283.50
2022-12-29T19:13:43.995Z,94310.78
2022-12-29T19:16:18.701Z,94321.84
2022-12-29T19:18:58.288Z,94374.03
2022-12-29T19:21:32.017Z,94406.09
2022-12-29T19:24:00.498Z,94457.44
2022-12-29T19:26:31.669Z,94496.59
2022-12-29T19:29:13.489Z,94533.94
2022-12-29T19:31:43.780Z,94589.53
2022-12-29T19:34:14.742Z,94616.13
2022-12-29T19:36:42.991Z,94616.91
2022-12-29T19:39:10.956Z,94642.00
2022-12-29T19:41:38.973Z,94677.22
2022-12-29T19:44:08.945Z,94720.72
2022-12-29T19:46:36.954Z,94735.25
2022-12-29T19:49:05.126Z,94816.72
2022-12-29T19:51:33.248Z,94803.44
2022-12-29T19:54:01.517Z,94833.06
2022-12-29T19:56:29.865Z,94889.91
2022-12-29T19:58:58.677Z,94897.00
2022-12-29T20:01:29.346Z,94952.03
2022-12-29T20:03:57.967Z,94965.03
2022-12-29T20:06:26.071Z,95002.03
2022-12-29T20:08:55.631Z,95018.06
2022-12-29T20:11:23.636Z,95035.06
2022-12-29T20:13:51.912Z,95051.16
2022-12-29T20:16:20.989Z,95036.34
2022-12-29T20:18:50.767Z,95075.25
2022-12-29T20:21:21.718Z,95096.53
2022-12-29T20:23:50.703Z,95098.94
2022-12-29T20:26:21.946Z,95099.72
2022-12-29T20:28:50.483Z,95106.31
2022-12-29T20:31:21.653Z,95148.50
2022-12-29T20:33:51.633Z,95163.59
2022-12-29T20:36:21.729Z,95176.19
2022-12-29T20:38:51.781Z,95173.31
2022-12-29T20:41:20.513Z,95181.16
2022-12-29T20:43:48.577Z,95159.00
2022-12-29T20:46:21.936Z,95212.06
2022-12-29T20:48:54.528Z,95226.50
2022-12-29T20:51:22.605Z,95243.66
2022-12-29T20:53:50.800Z,95263.47
2022-12-29T20:56:21.479Z,95253.75
2022-12-29T21:02:21.150Z,95262.44
2022-12-29T21:05:23.438Z,95271.50
2022-12-29T21:07:43.903Z,95312.63
2022-12-29T21:10:12.429Z,95289.47
2022-12-29T21:12:40.405Z,95294.03
2022-12-29T21:15:09.204Z,95268.19
2022-12-29T21:17:37.667Z,95292.97
2022-12-29T21:20:08.390Z,95337.19
2022-12-29T21:22:36.449Z,95319.03
2022-12-29T21:25:04.511Z,95332.63
2022-12-29T21:27:34.227Z,95333.06
2022-12-29T21:30:02.177Z,95313.22
2022-12-29T21:32:30.290Z,95331.41
2022-12-29T21:34:58.306Z,95321.09
2022-12-29T21:37:28.593Z,95317.75
2022-12-29T21:39:57.009Z,95326.03
2022-12-29T21:42:25.087Z,95342.75
2022-12-29T21:45:13.996Z,95352.88
2022-12-29T21:48:02.067Z,95349.16
2022-12-29T21:50:30.068Z,95362.38
2022-12-29T21:52:59.575Z,95363.19
2022-12-29T21:55:27.586Z,95342.75
2022-12-29T21:58:24.470Z,95341.75
2022-12-29T22:01:13.142Z,95352.06
2022-12-29T22:03:58.447Z,95310.78
2022-12-29T22:06:43.698Z,95291.38
2022-12-29T22:09:30.608Z,95310.19
2022-12-29T22:12:16.262Z,95336.00
2022-12-29T22:14:44.190Z,95300.50
2022-12-29T22:17:14.405Z,95306.88
2022-12-29T22:19:42.704Z,95311.22
2022-12-29T22:22:10.679Z,95316.16
2022-12-29T22:24:40.145Z,95307.50
2022-12-29T22:27:08.164Z,95321.50
2022-12-29T22:29:36.315Z,95322.75
2022-12-29T22:32:04.397Z,95335.53
2022-12-29T22:34:32.448Z,95344.19
2022-12-29T22:37:00.936Z,95350.41
2022-12-29T22:39:28.875Z,95346.66
2022-12-29T22:41:58.419Z,95363.19
2022-12-29T22:44:26.454Z,95367.50
2022-12-29T22:46:54.566Z,95359.88
2022-12-29T22:49:22.599Z,95387.72
2022-12-29T22:51:50.694Z,95413.94
2022-12-29T22:54:19.831Z,95439.13
2022-12-29T22:56:48.293Z,95408.97
2022-12-29T22:59:18.084Z,95447.16
2022-12-29T23:01:46.593Z,95482.41
2022-12-29T23:04:59.235Z,95472.53
2022-12-29T23:07:03.099Z,95469.44
2022-12-29T23:09:31.196Z,95491.06
2022-12-29T23:11:59.302Z,95449.00
2022-12-29T23:14:28.828Z,95464.88
2022-12-29T23:16:56.980Z,95470.06
2022-12-29T23:19:25.237Z,95497.06
2022-12-29T23:21:53.264Z,95489.81
2022-12-29T23:24:21.355Z,95504.69
2022-12-29T23:26:49.572Z,95508.41
2022-12-29T23:29:20.019Z,95520.78
2022-12-29T23:31:49.873Z,95512.97
2022-12-29T23:34:18.346Z,95537.69
2022-12-29T23:36:46.767Z,95517.09
2022-12-29T23:39:20.041Z,95526.97
2022-12-29T23:41:48.288Z,95519.34
2022-12-29T23:44:16.387Z,95552.31
2022-12-29T23:46:44.358Z,95554.41
2022-12-29T23:49:14.595Z,95563.25
2022-12-29T23:51:42.681Z,95554.81
2022-12-29T23:54:10.618Z,95566.56
2022-12-29T23:56:38.620Z,95565.53
2022-12-29T23:59:07.624Z,95576.50
